Time;durP1;ratioP1;P1;durP2;ratioP2;P2;SDS_P1;SDS_P2;PMS_P1;PMS_P2;Temp;Humidity;BMP_temperature;BMP_pressure;BME280_temperature;BME280_humidity;BME280_pressure;Samples;Min_cycle;Max_cycle;Signal;HPM_P1;HPM_P2
2021/08/26 00:07:54;;;;;;;14.88;7.40;;;;;;;11.01;98.79;96604.03;5053890;28;20120;-63
2021/08/26 00:10:22;;;;;;;13.18;6.88;;;;;;;10.83;98.52;96605.75;5054838;28;20075;-63
2021/08/26 00:12:48;;;;;;;11.85;6.53;;;;;;;10.71;100.00;96607.56;5048514;28;20697;-66
2021/08/26 00:15:13;;;;;;;11.55;6.82;;;;;;;10.66;99.09;96601.59;5041825;28;20041;-64
2021/08/26 00:17:40;;;;;;;14.90;7.57;;;;;;;10.49;100.00;96591.97;5041688;28;20033;-63
2021/08/26 00:20:06;;;;;;;14.15;6.97;;;;;;;10.49;100.00;96598.22;5031354;28;20049;-63
2021/08/26 00:22:32;;;;;;;10.77;6.35;;;;;;;10.82;100.00;96591.28;5046737;28;20052;-63
2021/08/26 00:24:57;;;;;;;13.20;7.40;;;;;;;10.47;100.00;96588.81;5042084;28;20041;-62
2021/08/26 00:27:23;;;;;;;15.38;7.32;;;;;;;10.32;100.00;96596.03;5037592;28;20511;-63
2021/08/26 00:29:50;;;;;;;14.00;7.13;;;;;;;10.36;100.00;96582.41;5031591;28;20069;-62
2021/08/26 00:32:15;;;;;;;14.50;7.10;;;;;;;10.30;100.00;96587.38;5018581;28;20128;-62
2021/08/26 00:34:40;;;;;;;11.32;6.78;;;;;;;10.32;100.00;96588.59;5041222;28;20064;-63
2021/08/26 00:37:06;;;;;;;15.40;7.30;;;;;;;10.38;100.00;96580.06;5041384;28;20434;-61
2021/08/26 00:39:31;;;;;;;13.68;8.35;;;;;;;10.26;100.00;96586.50;5028750;28;20045;-64
2021/08/26 00:41:57;;;;;;;14.32;7.50;;;;;;;10.12;100.00;96587.09;5027761;28;20060;-64
2021/08/26 00:44:22;;;;;;;11.07;7.25;;;;;;;10.17;100.00;96572.28;5022619;28;20540;-63
2021/08/26 00:46:48;;;;;;;15.43;8.77;;;;;;;10.22;100.00;96575.50;5025941;28;20513;-62
2021/08/26 00:49:15;;;;;;;15.00;7.30;;;;;;;10.33;100.00;96579.25;5019976;28;20053;-63
2021/08/26 00:51:40;;;;;;;11.55;7.07;;;;;;;10.37;100.00;96573.00;5024208;28;20056;-63
2021/08/26 00:54:07;;;;;;;12.80;7.15;;;;;;;10.53;100.00;96570.91;5026635;28;20386;-64
2021/08/26 00:56:32;;;;;;;27.73;16.52;;;;;;;10.68;100.00;96569.19;5023318;28;20073;-61
2021/08/26 00:59:00;;;;;;;12.75;7.47;;;;;;;10.65;100.00;96570.69;5021533;28;20459;-63
2021/08/26 01:01:34;;;;;;;11.50;6.63;;;;;;;10.54;100.00;96560.75;5017683;28;20087;-63
2021/08/26 01:04:25;;;;;;;13.60;7.38;;;;;;;10.27;100.00;96556.03;5022525;28;20405;-62
2021/08/26 01:06:57;;;;;;;14.43;8.20;;;;;;;10.19;100.00;96559.03;5026296;28;20120;-62
2021/08/26 01:09:29;;;;;;;11.77;7.22;;;;;;;10.16;100.00;96551.56;5029382;28;20056;-64
2021/08/26 01:11:56;;;;;;;14.95;7.63;;;;;;;10.07;100.00;96551.81;5042820;28;20080;-63
2021/08/26 01:14:22;;;;;;;28.73;8.35;;;;;;;9.95;100.00;96559.03;5035341;28;20041;-64
2021/08/26 01:16:48;;;;;;;14.82;8.20;;;;;;;9.63;100.00;96563.97;5042314;28;20033;-62
2021/08/26 01:19:13;;;;;;;16.65;9.15;;;;;;;9.50;100.00;96562.56;5045643;28;20041;-64
2021/08/26 01:21:38;;;;;;;39.88;9.57;;;;;;;9.36;100.00;96563.88;5053014;28;20075;-64
2021/08/26 01:24:07;;;;;;;15.70;9.50;;;;;;;9.27;100.00;96557.84;5045555;28;20052;-64
2021/08/26 01:26:41;;;;;;;16.63;10.03;;;;;;;9.18;100.00;96554.53;5045213;28;20044;-64
2021/08/26 01:29:07;;;;;;;16.40;9.85;;;;;;;9.23;100.00;96565.19;5034995;28;20072;-61
2021/08/26 01:31:34;;;;;;;18.90;9.63;;;;;;;9.23;100.00;96561.66;5032555;28;20525;-62
2021/08/26 01:34:01;;;;;;;19.35;9.23;;;;;;;9.44;100.00;96564.03;5036499;28;20122;-62
2021/08/26 01:36:28;;;;;;;14.20;9.23;;;;;;;9.65;100.00;96563.59;5029022;28;20044;-64
2021/08/26 01:39:00;;;;;;;12.93;8.60;;;;;;;9.72;100.00;96559.06;5030260;28;20108;-62
2021/08/26 01:41:51;;;;;;;14.88;8.63;;;;;;;9.76;100.00;96556.41;5023795;28;20053;-62
2021/08/26 01:44:17;;;;;;;13.63;8.73;;;;;;;9.83;100.00;96545.56;5017588;28;20353;-63
2021/08/26 01:46:43;;;;;;;13.27;7.65;;;;;;;9.74;100.00;96548.56;5032830;28;20048;-63
2021/08/26 01:49:08;;;;;;;13.95;7.75;;;;;;;9.77;100.00;96549.75;5013470;28;20056;-64
2021/08/26 01:51:34;;;;;;;12.55;7.18;;;;;;;9.79;100.00;96554.88;5041131;28;20047;-62
2021/08/26 01:54:00;;;;;;;14.13;7.22;;;;;;;9.84;100.00;96552.63;5025678;28;20046;-64
2021/08/26 01:56:26;;;;;;;11.23;6.90;;;;;;;9.91;100.00;96547.25;5022109;28;20046;-64
2021/08/26 01:58:51;;;;;;;16.02;8.68;;;;;;;9.93;100.00;96547.69;5042351;28;20029;-66
2021/08/26 02:01:17;;;;;;;9.90;6.43;;;;;;;9.98;100.00;96543.84;5041810;28;20052;-63
2021/08/26 02:03:42;;;;;;;12.98;6.43;;;;;;;10.18;100.00;96544.56;5033710;28;20086;-64
2021/08/26 02:06:08;;;;;;;11.88;6.38;;;;;;;10.26;100.00;96550.91;5037968;28;20037;-63
2021/08/26 02:08:35;;;;;;;11.32;6.82;;;;;;;10.23;100.00;96544.25;5042584;28;20045;-63
2021/08/26 02:11:00;;;;;;;14.48;6.30;;;;;;;10.17;100.00;96548.44;5024140;28;20401;-62
2021/08/26 02:13:25;;;;;;;14.25;7.22;;;;;;;10.24;100.00;96539.56;5035625;28;20041;-64
2021/08/26 02:15:51;;;;;;;10.88;7.13;;;;;;;10.07;100.00;96544.38;5039854;28;20212;-63
2021/08/26 02:18:16;;;;;;;15.35;6.43;;;;;;;9.87;100.00;96537.44;5045710;28;20047;-64
2021/08/26 02:20:42;;;;;;;10.23;6.00;;;;;;;9.75;100.00;96538.38;5022952;28;20846;-61
2021/08/26 02:23:07;;;;;;;13.75;6.95;;;;;;;9.89;100.00;96538.63;5018644;28;20057;-64
2021/08/26 02:25:32;;;;;;;10.82;6.80;;;;;;;9.97;100.00;96525.06;5033607;28;20053;-60
2021/08/26 02:27:58;;;;;;;10.70;6.65;;;;;;;10.03;100.00;96529.06;5018148;28;20454;-63
2021/08/26 02:30:23;;;;;;;10.80;6.75;;;;;;;9.87;100.00;96527.28;5007130;28;20514;-66
2021/08/26 02:32:49;;;;;;;11.65;7.30;;;;;;;9.70;100.00;96531.28;5025703;28;20123;-65
2021/08/26 02:35:14;;;;;;;13.35;7.82;;;;;;;9.38;100.00;96530.69;5018584;28;20124;-65
2021/08/26 02:37:40;;;;;;;11.52;6.95;;;;;;;9.51;100.00;96528.63;5023082;28;20065;-64
2021/08/26 02:40:06;;;;;;;11.55;7.22;;;;;;;9.74;100.00;96515.72;5016288;28;20047;-63
2021/08/26 02:42:32;;;;;;;12.60;7.20;;;;;;;9.97;100.00;96512.16;5019214;28;20115;-63
2021/08/26 02:44:57;;;;;;;10.50;6.63;;;;;;;10.12;100.00;96510.47;5018347;28;20045;-64
2021/08/26 02:47:22;;;;;;;11.63;7.63;;;;;;;10.20;100.00;96503.13;5015182;28;20489;-64
2021/08/26 02:49:48;;;;;;;16.13;7.65;;;;;;;10.22;100.00;96506.28;5020614;28;20633;-66
2021/08/26 02:52:14;;;;;;;11.02;6.93;;;;;;;10.40;100.00;96507.34;4998067;28;20071;-64
2021/08/26 02:54:39;;;;;;;12.63;6.95;;;;;;;10.41;100.00;96502.69;5020594;28;20047;-64
2021/08/26 02:57:05;;;;;;;12.23;6.07;;;;;;;10.50;100.00;96503.97;4997553;28;20044;-65
2021/08/26 02:59:30;;;;;;;9.68;6.00;;;;;;;10.56;100.00;96503.66;5019761;28;20046;-63
2021/08/26 03:01:55;;;;;;;11.80;5.95;;;;;;;10.54;100.00;96509.50;5018585;28;20033;-63
2021/08/26 03:04:21;;;;;;;12.27;5.82;;;;;;;10.63;100.00;96512.75;5009921;28;20056;-64
2021/08/26 03:06:46;;;;;;;10.95;6.45;;;;;;;10.65;100.00;96512.38;5020008;28;20037;-65
2021/08/26 03:09:12;;;;;;;8.50;5.50;;;;;;;10.68;100.00;96506.19;5010599;28;20040;-64
2021/08/26 03:11:37;;;;;;;15.57;6.43;;;;;;;10.69;100.00;96500.31;5020161;28;20037;-66
2021/08/26 03:14:03;;;;;;;11.93;5.93;;;;;;;10.65;100.00;96499.47;5015221;28;20049;-64
2021/08/26 03:16:28;;;;;;;13.55;7.03;;;;;;;10.55;100.00;96502.06;5006892;28;20053;-66
2021/08/26 03:18:54;;;;;;;13.43;6.45;;;;;;;10.59;100.00;96491.94;4990096;28;20104;-65
2021/08/26 03:21:19;;;;;;;9.98;6.65;;;;;;;10.41;100.00;96483.53;5002381;28;20037;-65
2021/08/26 03:23:44;;;;;;;11.93;6.88;;;;;;;10.39;100.00;96489.38;4999336;28;20137;-66
2021/08/26 03:26:10;;;;;;;9.77;6.72;;;;;;;10.38;100.00;96498.72;4995527;28;20065;-66
2021/08/26 03:28:35;;;;;;;13.38;7.07;;;;;;;10.43;100.00;96495.69;5000377;28;20061;-66
2021/08/26 03:31:01;;;;;;;13.05;6.47;;;;;;;10.62;100.00;96508.44;4982934;28;20038;-65
2021/08/26 03:33:26;;;;;;;11.63;6.00;;;;;;;10.80;100.00;96505.91;5011262;28;20609;-64
2021/08/26 03:35:52;;;;;;;12.90;6.25;;;;;;;10.87;100.00;96510.69;5019689;28;20038;-64
2021/08/26 03:38:17;;;;;;;13.60;6.18;;;;;;;10.85;100.00;96502.06;5020581;28;20036;-64
2021/08/26 03:40:43;;;;;;;13.95;6.35;;;;;;;10.82;100.00;96503.63;5026000;28;20131;-67
2021/08/26 03:43:09;;;;;;;11.77;7.00;;;;;;;10.63;100.00;96501.81;5018585;22;20478;-61
2021/08/26 03:45:34;;;;;;;10.05;6.53;;;;;;;10.56;100.00;96503.66;4986945;28;20076;-61
2021/08/26 03:48:00;;;;;;;10.45;6.68;;;;;;;10.66;100.00;96500.25;4995976;28;20473;-62
2021/08/26 03:50:25;;;;;;;11.27;6.60;;;;;;;10.67;100.00;96488.94;4998107;28;20057;-60
2021/08/26 03:52:51;;;;;;;14.88;7.07;;;;;;;10.57;100.00;96480.59;4999333;28;20045;-63
2021/08/26 03:55:16;;;;;;;12.73;7.18;;;;;;;10.59;100.00;96478.25;4986150;28;20447;-63
2021/08/26 03:57:42;;;;;;;12.73;6.97;;;;;;;10.38;100.00;96476.03;4995222;28;20057;-62
2021/08/26 04:00:08;;;;;;;10.50;6.93;;;;;;;10.13;100.00;96479.19;4997960;28;20513;-63
2021/08/26 04:02:33;;;;;;;11.55;6.63;;;;;;;10.14;100.00;96467.88;4991926;28;20053;-63
2021/08/26 04:04:59;;;;;;;11.23;6.82;;;;;;;10.37;100.00;96467.06;4981497;28;20038;-62
2021/08/26 04:07:25;;;;;;;11.18;6.57;;;;;;;10.47;100.00;96455.44;4986828;28;20078;-61
2021/08/26 04:09:52;;;;;;;14.40;7.00;;;;;;;10.43;100.00;96451.09;4995266;28;20042;-62
2021/08/26 04:12:17;;;;;;;21.67;9.02;;;;;;;10.21;100.00;96453.50;4997084;28;20080;-61
2021/08/26 04:14:43;;;;;;;13.77;7.50;;;;;;;10.13;100.00;96466.28;5003085;28;20078;-60
2021/08/26 04:17:08;;;;;;;10.50;6.28;;;;;;;10.31;100.00;96471.25;4979674;28;20134;-62
2021/08/26 04:19:34;;;;;;;11.68;7.07;;;;;;;10.37;100.00;96467.06;4989312;28;20379;-62
2021/08/26 04:21:59;;;;;;;10.70;6.35;;;;;;;10.45;100.00;96465.97;4992802;28;20042;-62
2021/08/26 04:24:25;;;;;;;12.10;6.35;;;;;;;10.46;100.00;96464.81;4979153;28;20043;-62
2021/08/26 04:26:50;;;;;;;10.65;6.00;;;;;;;10.41;100.00;96456.94;4982121;28;20558;-62
2021/08/26 04:29:16;;;;;;;12.10;6.82;;;;;;;10.46;100.00;96453.88;4985975;28;20045;-62
2021/08/26 04:31:41;;;;;;;11.88;6.40;;;;;;;10.27;100.00;96459.44;5009208;28;20041;-61
2021/08/26 04:34:07;;;;;;;12.73;7.43;;;;;;;10.21;100.00;96447.22;4990522;28;20046;-61
2021/08/26 04:36:32;;;;;;;10.85;6.68;;;;;;;10.09;100.00;96454.50;4991589;28;20133;-61
2021/08/26 04:38:58;;;;;;;10.52;6.35;;;;;;;10.01;100.00;96452.84;4991514;28;20038;-61
2021/08/26 04:41:23;;;;;;;13.98;6.93;;;;;;;9.80;100.00;96449.78;4997125;28;20534;-62
2021/08/26 04:43:48;;;;;;;11.35;6.57;;;;;;;9.75;100.00;96450.88;4991823;28;20038;-62
2021/08/26 04:46:14;;;;;;;13.60;6.55;;;;;;;9.71;100.00;96459.03;4985687;28;20433;-61
2021/08/26 04:48:39;;;;;;;12.73;6.93;;;;;;;9.93;100.00;96465.59;4995491;28;20098;-61
2021/08/26 04:51:05;;;;;;;13.63;7.32;;;;;;;10.05;100.00;96458.38;4970772;28;20148;-60
2021/08/26 04:53:31;;;;;;;10.55;6.10;;;;;;;10.02;100.00;96465.34;4987595;28;20061;-62
2021/08/26 04:55:56;;;;;;;10.20;6.10;;;;;;;10.10;100.00;96469.78;4983078;28;20073;-61
2021/08/26 04:58:21;;;;;;;15.02;7.38;;;;;;;10.29;100.00;96468.84;4976874;28;20643;-63
2021/08/26 05:00:47;;;;;;;13.90;6.10;;;;;;;10.47;100.00;96471.06;4987898;28;20108;-63
2021/08/26 05:03:13;;;;;;;9.00;6.07;;;;;;;10.49;100.00;96477.75;4983938;28;20061;-63
2021/08/26 05:05:38;;;;;;;12.07;6.38;;;;;;;10.57;99.94;96473.19;4993971;28;20100;-63
2021/08/26 05:08:04;;;;;;;11.65;6.90;;;;;;;10.62;99.29;96472.81;4988015;28;20466;-65
2021/08/26 05:10:29;;;;;;;12.57;6.53;;;;;;;10.73;99.19;96469.44;4990063;28;20038;-62
2021/08/26 05:12:55;;;;;;;10.90;6.30;;;;;;;10.91;98.99;96481.38;4981866;28;20046;-62
2021/08/26 05:15:20;;;;;;;13.45;6.53;;;;;;;11.47;98.46;96479.63;4981181;28;20042;-63
2021/08/26 05:17:46;;;;;;;17.67;5.80;;;;;;;12.26;92.50;96479.47;4983240;28;20046;-61
2021/08/26 05:20:12;;;;;;;8.55;5.40;;;;;;;13.11;87.45;96475.56;4984790;28;20054;-63
2021/08/26 05:22:37;;;;;;;10.82;5.35;;;;;;;13.44;83.92;96474.47;4980525;28;20049;-63
2021/08/26 05:25:03;;;;;;;9.45;5.15;;;;;;;13.42;83.70;96478.78;4978795;28;20561;-62
2021/08/26 05:27:29;;;;;;;9.63;5.43;;;;;;;13.75;81.77;96481.16;4982252;28;20038;-63
2021/08/26 05:29:54;;;;;;;10.00;4.95;;;;;;;14.00;80.50;96474.09;4982071;28;20125;-63
2021/08/26 05:32:20;;;;;;;9.43;5.35;;;;;;;14.09;79.06;96472.50;4983172;28;20509;-63
2021/08/26 05:34:46;;;;;;;10.48;5.20;;;;;;;14.17;79.05;96486.25;4999042;28;20065;-62
2021/08/26 05:37:11;;;;;;;10.80;5.22;;;;;;;14.11;78.50;96499.66;4984853;28;20046;-63
2021/08/26 05:39:37;;;;;;;12.88;5.20;;;;;;;13.97;79.41;96500.44;4992552;28;20073;-63
2021/08/26 05:42:03;;;;;;;10.25;5.55;;;;;;;13.83;80.28;96505.94;5014375;28;20072;-62
2021/08/26 05:44:28;;;;;;;7.68;4.72;;;;;;;13.63;81.17;96509.09;4986073;28;20046;-63
2021/08/26 05:46:54;;;;;;;9.82;5.80;;;;;;;13.35;82.79;96509.81;4987715;28;20042;-63
2021/08/26 05:49:19;;;;;;;10.40;6.38;;;;;;;12.99;85.15;96515.94;4975667;28;20046;-63
2021/08/26 05:51:45;;;;;;;8.95;5.75;;;;;;;12.73;87.22;96514.28;4988874;28;20470;-61
2021/08/26 05:54:10;;;;;;;14.02;5.95;;;;;;;12.70;87.76;96514.25;4979372;28;20103;-62
2021/08/26 05:56:36;;;;;;;12.95;5.95;;;;;;;12.68;88.53;96508.38;4982154;28;20056;-61
2021/08/26 05:59:01;;;;;;;14.30;6.47;;;;;;;12.65;90.40;96507.16;4984518;28;20150;-62
2021/08/26 06:01:29;;;;;;;12.82;6.32;;;;;;;12.58;91.10;96496.13;4987780;28;20548;-62
2021/08/26 06:03:55;;;;;;;10.02;5.97;;;;;;;12.92;89.21;96482.16;4999513;28;20042;-62
2021/08/26 06:06:21;;;;;;;9.90;5.82;;;;;;;13.03;89.40;96491.22;4988310;28;20517;-61
2021/08/26 06:08:46;;;;;;;12.15;6.75;;;;;;;12.78;91.78;96480.94;4992804;28;20045;-61
2021/08/26 06:11:12;;;;;;;9.45;5.70;;;;;;;12.82;92.40;96495.47;4985768;28;20142;-62
2021/08/26 06:13:38;;;;;;;11.35;7.15;;;;;;;13.11;91.46;96492.81;4991257;28;20037;-63
2021/08/26 06:16:03;;;;;;;16.58;7.70;;;;;;;13.48;89.54;96485.47;4955894;28;20129;-61
2021/08/26 06:18:30;;;;;;;16.05;7.93;;;;;;;13.67;88.94;96476.84;4977030;28;20058;-62
2021/08/26 06:20:55;;;;;;;12.25;5.85;;;;;;;14.88;82.89;96469.56;4981380;28;20070;-62
2021/08/26 06:23:20;;;;;;;13.98;6.43;;;;;;;15.26;81.24;96468.97;4975071;28;20118;-62
2021/08/26 06:25:46;;;;;;;13.88;6.25;;;;;;;16.02;78.25;96467.25;4980967;28;20110;-62
2021/08/26 06:28:11;;;;;;;18.75;6.35;;;;;;;16.42;75.71;96469.66;4970494;28;20043;-62
2021/08/26 06:30:37;;;;;;;11.73;6.63;;;;;;;16.57;74.87;96467.53;4977967;28;20046;-62
2021/08/26 06:33:04;;;;;;;10.27;5.93;;;;;;;17.39;72.32;96462.97;4995462;28;20046;-61
2021/08/26 06:35:29;;;;;;;13.55;6.90;;;;;;;17.74;70.11;96474.72;4986028;28;20554;-60
2021/08/26 06:37:55;;;;;;;14.35;6.80;;;;;;;17.72;69.47;96469.59;4986442;28;20137;-62
2021/08/26 06:40:20;;;;;;;12.05;6.88;;;;;;;18.27;68.30;96464.75;4997269;28;20054;-61
2021/08/26 06:42:45;;;;;;;11.05;5.93;;;;;;;18.50;66.91;96472.25;4986619;28;20055;-62
2021/08/26 06:45:11;;;;;;;10.32;5.93;;;;;;;18.72;65.86;96455.22;4975223;28;20149;-64
2021/08/26 06:47:36;;;;;;;11.57;6.22;;;;;;;18.42;67.68;96464.50;4983450;28;20565;-61
2021/08/26 06:50:03;;;;;;;13.18;6.60;;;;;;;18.86;63.70;96462.50;4984544;28;20134;-61
2021/08/26 06:52:29;;;;;;;11.00;5.90;;;;;;;19.36;63.00;96469.78;4987948;28;20046;-61
2021/08/26 06:54:54;;;;;;;10.95;6.22;;;;;;;19.18;63.09;96474.94;4990789;28;20392;-63
2021/08/26 06:57:19;;;;;;;13.15;5.93;;;;;;;18.86;64.23;96477.16;4987131;28;20089;-62
2021/08/26 06:59:45;;;;;;;9.55;5.07;;;;;;;18.36;66.45;96475.28;4982520;28;20046;-62
2021/08/26 07:02:11;;;;;;;11.15;6.38;;;;;;;17.98;68.21;96472.00;4977169;28;20038;-63
2021/08/26 07:04:36;;;;;;;11.43;6.60;;;;;;;17.71;69.27;96470.78;4990902;28;20046;-63
2021/08/26 07:07:02;;;;;;;12.23;7.25;;;;;;;17.50;69.59;96477.47;4989492;28;20116;-63
2021/08/26 07:09:27;;;;;;;13.75;7.07;;;;;;;17.73;70.64;96479.47;4980422;28;20058;-64
2021/08/26 07:11:52;;;;;;;11.20;6.97;;;;;;;18.42;67.89;96479.16;4987861;28;20047;-63
2021/08/26 07:14:18;;;;;;;12.93;7.00;;;;;;;18.79;66.58;96465.38;4983961;28;20521;-62
2021/08/26 07:16:44;;;;;;;12.52;7.22;;;;;;;19.25;64.58;96461.69;4988342;28;20081;-63
2021/08/26 07:19:09;;;;;;;10.27;7.00;;;;;;;19.55;63.64;96462.59;4981576;28;20515;-63
2021/08/26 07:21:35;;;;;;;9.38;6.55;;;;;;;19.58;63.03;96458.97;4982297;28;20042;-62
2021/08/26 07:24:00;;;;;;;13.55;7.38;;;;;;;18.77;66.09;96457.50;4994583;28;20057;-64
2021/08/26 07:26:25;;;;;;;13.18;6.93;;;;;;;18.98;65.46;96458.28;4987018;28;20058;-63
2021/08/26 07:28:52;;;;;;;12.15;6.60;;;;;;;19.53;63.99;96453.91;4993320;28;20050;-62
2021/08/26 07:31:18;;;;;;;11.55;6.90;;;;;;;19.76;63.23;96447.47;4984432;28;20065;-60
2021/08/26 07:33:44;;;;;;;9.75;6.63;;;;;;;20.08;62.08;96445.91;4986363;28;20217;-61
2021/08/26 07:36:09;;;;;;;9.43;6.10;;;;;;;20.11;61.99;96441.44;4989618;28;20048;-61
2021/08/26 07:38:35;;;;;;;12.65;6.78;;;;;;;20.28;60.79;96436.66;4980654;28;20042;-61
2021/08/26 07:41:00;;;;;;;11.45;6.22;;;;;;;21.90;57.07;96444.69;4991856;28;20052;-62
2021/08/26 07:43:30;;;;;;;12.00;7.07;;;;;;;23.43;52.07;96444.53;4983148;28;20066;-62
2021/08/26 07:45:56;;;;;;;10.02;5.68;;;;;;;24.38;49.57;96443.09;4978831;28;20069;-61
2021/08/26 07:48:21;;;;;;;9.95;6.60;;;;;;;24.97;47.59;96454.16;4978995;28;21022;-61
2021/08/26 07:50:48;;;;;;;12.07;6.15;;;;;;;25.35;46.00;96438.84;4992670;28;20049;-61
2021/08/26 07:53:14;;;;;;;9.25;5.30;;;;;;;26.22;44.62;96444.72;4997285;28;20038;-62
2021/08/26 07:55:39;;;;;;;11.52;5.35;;;;;;;26.19;44.32;96448.47;5002760;28;20050;-62
2021/08/26 07:58:05;;;;;;;10.20;5.70;;;;;;;24.92;47.03;96443.56;4990472;28;20049;-61
2021/08/26 08:00:30;;;;;;;9.98;5.75;;;;;;;26.24;44.32;96449.84;4997502;28;20103;-61
2021/08/26 08:02:55;;;;;;;9.98;6.03;;;;;;;24.92;45.92;96443.56;4989787;28;20523;-60
2021/08/26 08:05:21;;;;;;;11.68;6.55;;;;;;;24.80;47.05;96439.72;4979098;28;20282;-63
2021/08/26 08:07:46;;;;;;;9.63;6.43;;;;;;;25.78;44.75;96447.25;4985007;28;20046;-63
2021/08/26 08:10:13;;;;;;;9.93;5.72;;;;;;;26.35;43.79;96440.88;4997332;28;20424;-63
2021/08/26 08:12:39;;;;;;;9.90;6.22;;;;;;;27.13;41.91;96441.63;4996906;28;20040;-61
2021/08/26 08:15:05;;;;;;;9.15;6.13;;;;;;;26.85;42.39;96432.72;4979597;28;20455;-61
2021/08/26 08:17:30;;;;;;;8.70;6.07;;;;;;;26.26;43.09;96438.91;4976263;28;20046;-62
2021/08/26 08:19:56;;;;;;;10.63;5.47;;;;;;;27.33;41.44;96443.78;4991028;28;20418;-62
2021/08/26 08:22:21;;;;;;;11.55;5.85;;;;;;;26.85;42.63;96438.34;4992286;28;20846;-63
2021/08/26 08:24:46;;;;;;;9.00;5.68;;;;;;;26.90;42.73;96440.44;4994647;28;20128;-61
2021/08/26 08:27:12;;;;;;;13.65;6.22;;;;;;;26.86;42.77;96434.25;4984258;28;20475;-62
2021/08/26 08:29:37;;;;;;;12.32;7.85;;;;;;;24.81;47.06;96432.84;4987758;28;20042;-62
2021/08/26 08:32:03;;;;;;;9.68;6.10;;;;;;;25.69;45.86;96442.47;4983784;28;20069;-62
2021/08/26 08:34:28;;;;;;;9.02;6.30;;;;;;;25.43;44.72;96436.50;4990820;28;20080;-62
2021/08/26 08:36:54;;;;;;;7.80;5.40;;;;;;;24.90;48.22;96429.25;4988328;28;20096;-62
2021/08/26 08:39:21;;;;;;;9.07;6.30;;;;;;;24.70;47.85;96436.13;4977631;28;20448;-63
2021/08/26 08:41:47;;;;;;;8.57;5.55;;;;;;;23.99;49.27;96434.34;4983389;28;20042;-63
2021/08/26 08:44:13;;;;;;;9.15;6.65;;;;;;;23.96;50.23;96430.44;4977111;28;20046;-63
2021/08/26 08:46:39;;;;;;;8.25;5.60;;;;;;;24.04;49.98;96425.34;4983029;28;20035;-63
2021/08/26 08:49:07;;;;;;;10.52;6.50;;;;;;;24.24;49.69;96416.50;4976815;28;20048;-62
2021/08/26 08:51:33;;;;;;;10.45;6.72;;;;;;;24.36;49.37;96426.78;4995979;28;20050;-63
2021/08/26 08:53:59;;;;;;;8.63;6.07;;;;;;;23.73;50.53;96414.19;4991079;28;20046;-63
2021/08/26 08:56:26;;;;;;;11.80;6.68;;;;;;;23.68;50.82;96423.97;4988181;28;20781;-62
2021/08/26 08:58:55;;;;;;;7.95;5.82;;;;;;;24.05;51.24;96415.69;4987941;28;20053;-63
2021/08/26 09:01:21;;;;;;;8.05;5.55;;;;;;;25.22;47.98;96413.78;4975328;28;20064;-63
2021/08/26 09:03:46;;;;;;;9.27;6.35;;;;;;;23.36;51.69;96412.03;4990176;28;20495;-63
2021/08/26 09:06:12;;;;;;;8.90;6.35;;;;;;;23.15;52.00;96424.03;4982979;28;20038;-63
2021/08/26 09:08:37;;;;;;;9.43;6.72;;;;;;;22.86;53.04;96417.47;4985511;28;20131;-62
2021/08/26 09:11:16;;;;;;;15.48;7.43;;;;;;;23.50;51.45;96410.72;4987700;28;20129;-63
2021/08/26 09:13:44;;;;;;;10.98;6.22;;;;;;;23.08;53.04;96403.53;4989462;28;20042;-64
2021/08/26 09:16:11;;;;;;;16.23;7.00;;;;;;;22.44;54.19;96401.06;4984493;28;20170;-63
2021/08/26 09:18:37;;;;;;;12.35;7.57;;;;;;;22.02;55.71;96404.06;4987846;28;20104;-63
2021/08/26 09:21:07;;;;;;;10.75;6.97;;;;;;;21.77;56.75;96408.47;4979008;28;20046;-63
2021/08/26 09:23:55;;;;;;;10.85;7.45;;;;;;;22.27;55.25;96396.88;4992655;28;20034;-63
2021/08/26 09:26:26;;;;;;;10.10;7.25;;;;;;;22.04;56.34;96400.81;4985862;28;20081;-64
2021/08/26 09:28:53;;;;;;;11.05;7.88;;;;;;;21.76;56.74;96392.94;4983848;28;20042;-63
2021/08/26 09:31:19;;;;;;;11.20;7.45;;;;;;;22.24;56.32;96390.16;4983464;28;20046;-62
2021/08/26 09:34:06;;;;;;;10.95;7.57;;;;;;;22.41;55.13;96393.56;4992714;28;20037;-64
2021/08/26 09:36:48;;;;;;;11.40;7.45;;;;;;;22.69;55.10;96402.16;4999154;28;20037;-62
2021/08/26 09:39:21;;;;;;;9.15;6.57;;;;;;;22.78;54.87;96393.06;5006485;28;20038;-64
2021/08/26 09:41:48;;;;;;;10.23;6.78;;;;;;;23.39;52.96;96388.78;5001529;28;20038;-64
2021/08/26 09:44:13;;;;;;;10.40;7.68;;;;;;;23.20;52.65;96393.50;4986638;28;20074;-64
2021/08/26 09:46:39;;;;;;;9.90;6.72;;;;;;;22.84;54.67;96397.59;4993707;28;20631;-64
2021/08/26 09:49:10;;;;;;;11.43;7.45;;;;;;;22.43;56.06;96385.53;4992684;28;20050;-64
2021/08/26 09:51:37;;;;;;;10.52;7.28;;;;;;;23.08;53.23;96380.38;4987589;28;20096;-64
2021/08/26 09:54:03;;;;;;;10.23;6.88;;;;;;;22.94;53.30;96387.28;4979619;28;20042;-64
2021/08/26 09:56:43;;;;;;;11.35;7.10;;;;;;;22.79;53.50;96383.47;4979184;28;20117;-64
2021/08/26 09:59:08;;;;;;;8.82;6.90;;;;;;;23.47;52.31;96384.44;4970926;28;20054;-64
2021/08/26 10:01:38;;;;;;;11.20;6.47;;;;;;;23.82;52.35;96384.28;4982885;28;20518;-63
2021/08/26 10:04:26;;;;;;;10.23;6.78;;;;;;;24.11;51.00;96379.47;4980311;28;20049;-63
2021/08/26 10:06:51;;;;;;;9.48;6.38;;;;;;;24.03;50.60;96367.81;4988610;28;20375;-63
2021/08/26 10:09:17;;;;;;;9.85;7.07;;;;;;;24.84;48.80;96361.91;4982335;28;20057;-63
2021/08/26 10:11:44;;;;;;;11.30;6.82;;;;;;;25.07;47.13;96354.06;4985219;28;20046;-63
2021/08/26 10:14:10;;;;;;;10.70;7.43;;;;;;;24.63;48.91;96348.88;4983816;28;20092;-63
2021/08/26 10:16:37;;;;;;;9.23;6.90;;;;;;;24.70;48.00;96354.91;4982389;28;20129;-63
2021/08/26 10:19:04;;;;;;;9.43;6.88;;;;;;;24.00;50.74;96358.34;4977724;28;20050;-63
2021/08/26 10:21:30;;;;;;;10.10;6.57;;;;;;;22.93;51.67;96346.63;4991145;28;21523;-63
2021/08/26 10:23:55;;;;;;;10.30;6.60;;;;;;;22.97;52.08;96352.84;5019500;23;20045;-63
2021/08/26 10:26:21;;;;;;;11.93;7.90;;;;;;;22.48;53.69;96356.28;5008885;28;20042;-66
2021/08/26 10:28:47;;;;;;;13.38;7.07;;;;;;;22.24;55.62;96358.72;5021499;28;20052;-64
2021/08/26 10:31:27;;;;;;;9.50;6.80;;;;;;;22.25;56.82;96363.03;5015602;28;20052;-64
2021/08/26 10:34:26;;;;;;;11.70;7.97;;;;;;;22.31;55.59;96364.06;5016465;28;20072;-65
2021/08/26 10:36:54;;;;;;;;;;;;;;;22.50;55.62;96368.53;5009938;28;20405;-64
2021/08/26 10:39:41;;;;;;;9.63;5.97;;;;;;;22.23;54.85;96357.91;5014223;28;19939;-63
2021/08/26 10:42:16;;;;;;;9.00;6.22;;;;;;;21.74;55.95;96361.97;5001304;28;20570;-65
2021/08/26 10:45:12;;;;;;;7.68;5.03;;;;;;;21.83;55.44;96355.72;4998218;28;20394;-65
2021/08/26 10:47:50;;;;;;;6.25;4.35;;;;;;;22.13;56.26;96354.28;5006508;28;20057;-64
2021/08/26 10:50:18;;;;;;;11.07;5.07;;;;;;;21.72;56.75;96356.06;4994099;28;20041;-65
2021/08/26 10:53:04;;;;;;;6.75;4.43;;;;;;;22.21;56.25;96346.44;5003138;28;20034;-64
2021/08/26 10:55:45;;;;;;;8.02;4.88;;;;;;;21.66;56.50;96363.44;5000919;28;20037;-65
2021/08/26 10:58:23;;;;;;;10.43;4.85;;;;;;;21.51;56.32;96356.78;5017582;28;20072;-64
2021/08/26 11:00:58;;;;;;;6.85;4.20;;;;;;;21.51;56.60;96354.75;5024780;28;20065;-63
2021/08/26 11:03:37;;;;;;;6.57;4.47;;;;;;;21.30;58.15;96355.41;5007997;28;20054;-65
2021/08/26 11:06:18;;;;;;;12.18;4.75;;;;;;;21.09;58.17;96357.66;5008019;28;20078;-62
2021/08/26 11:08:51;;;;;;;6.53;4.45;;;;;;;21.22;57.72;96354.88;5004010;28;20049;-64
2021/08/26 11:14:12;;;;;;;6.90;4.22;;;;;;;21.78;56.48;96347.91;5024394;28;20083;-63
2021/08/26 11:16:41;;;;;;;7.05;4.38;;;;;;;21.61;56.58;96347.28;5006844;28;20132;-65
2021/08/26 11:19:07;;;;;;;7.70;4.68;;;;;;;21.69;55.14;96340.22;5020269;28;20125;-63
2021/08/26 11:21:42;;;;;;;6.45;4.35;;;;;;;21.37;55.99;96339.28;5024253;28;20041;-63
2021/08/26 11:24:14;;;;;;;8.40;4.30;;;;;;;21.57;55.72;96330.69;5008169;28;20103;-64
2021/08/26 11:26:49;;;;;;;8.25;5.45;;;;;;;21.50;56.49;96332.91;5006723;28;20445;-64
2021/08/26 11:29:17;;;;;;;7.10;4.65;;;;;;;21.16;57.83;96337.94;5011011;28;20048;-64
2021/08/26 11:32:07;;;;;;;7.60;4.47;;;;;;;21.16;57.45;96331.59;5024197;28;20065;-63
2021/08/26 11:34:43;;;;;;;8.18;4.50;;;;;;;21.39;57.66;96339.59;5008666;28;20065;-63